createdAt,value
2023-03-16T00:02:16.260Z,52.51
2023-03-16T00:05:00.106Z,52.73
2023-03-16T00:15:10.742Z,53.02
2023-03-16T00:17:38.484Z,52.75
2023-03-16T00:20:07.145Z,52.88
2023-03-16T00:22:35.361Z,52.86
2023-03-16T00:25:04.495Z,52.52
2023-03-16T00:27:32.255Z,53.13
2023-03-16T00:30:00.183Z,53.26
2023-03-16T00:32:32.313Z,53.11
2023-03-16T00:35:03.961Z,52.84
2023-03-16T00:37:36.931Z,53.03
2023-03-16T00:40:07.729Z,52.72
2023-03-16T00:42:36.094Z,53.28
2023-03-16T00:45:05.867Z,53.20
2023-03-16T00:47:36.003Z,52.89
2023-03-16T00:50:04.268Z,53.02
2023-03-16T00:52:32.505Z,53.04
2023-03-16T00:55:00.239Z,52.80
2023-03-16T00:57:30.178Z,52.92
2023-03-16T00:59:59.281Z,52.77
2023-03-16T01:02:27.766Z,53.21
2023-03-16T01:04:55.558Z,52.87
2023-03-16T01:07:23.499Z,52.90
2023-03-16T01:09:51.944Z,52.91
2023-03-16T01:12:20.559Z,52.77
2023-03-16T01:14:48.680Z,52.96
2023-03-16T01:17:18.301Z,52.72
2023-03-16T01:19:46.708Z,52.51
2023-03-16T01:22:15.543Z,52.82
2023-03-16T01:24:47.404Z,52.99
2023-03-16T01:27:15.486Z,53.12
2023-03-16T01:29:44.400Z,53.06
2023-03-16T01:32:13.256Z,53.21
2023-03-16T01:34:41.838Z,53.16
2023-03-16T01:37:11.349Z,52.86
2023-03-16T01:40:00.923Z,53.08
2023-03-16T01:42:28.879Z,53.30
2023-03-16T01:45:05.671Z,53.23
2023-03-16T01:47:38.805Z,53.32
2023-03-16T01:50:11.163Z,52.97
2023-03-16T01:52:42.225Z,53.39
2023-03-16T01:55:15.615Z,53.57
2023-03-16T01:57:46.656Z,53.03
2023-03-16T02:00:31.532Z,52.96
2023-03-16T02:03:19.810Z,53.21
2023-03-16T02:06:12.924Z,52.74
2023-03-16T02:08:47.714Z,53.20
2023-03-16T02:11:18.103Z,52.82
2023-03-16T02:14:07.847Z,53.04
2023-03-16T02:16:35.776Z,53.27
2023-03-16T02:19:06.707Z,53.13
2023-03-16T02:21:47.380Z,53.45
2023-03-16T02:24:16.195Z,53.91
2023-03-16T02:26:58.435Z,53.51
2023-03-16T02:30:12.787Z,53.86
2023-03-16T02:32:54.593Z,53.77
2023-03-16T02:35:23.689Z,53.75
2023-03-16T02:37:52.680Z,53.67
2023-03-16T02:40:25.958Z,53.84
2023-03-16T02:43:06.507Z,53.54
2023-03-16T02:45:51.204Z,53.69
2023-03-16T02:48:42.823Z,53.89
2023-03-16T02:51:11.535Z,54.26
2023-03-16T02:53:39.357Z,53.99
2023-03-16T02:56:07.926Z,54.04
2023-03-16T02:58:37.844Z,53.63
2023-03-16T03:01:11.435Z,53.54
2023-03-16T03:03:40.341Z,53.53
2023-03-16T03:06:08.085Z,54.08
2023-03-16T03:08:37.904Z,53.65
2023-03-16T03:11:06.145Z,53.80
2023-03-16T03:13:34.573Z,53.97
2023-03-16T03:16:02.403Z,54.22
2023-03-16T03:18:30.627Z,53.76
2023-03-16T03:20:58.684Z,53.90
2023-03-16T03:23:26.506Z,53.99
2023-03-16T03:25:59.072Z,54.21
2023-03-16T03:28:34.208Z,54.00
2023-03-16T03:31:02.035Z,54.00
2023-03-16T03:33:30.459Z,54.11
2023-03-16T03:35:59.925Z,54.66
2023-03-16T03:38:31.592Z,54.51
2023-03-16T03:41:00.497Z,54.41
2023-03-16T03:43:32.158Z,54.23
2023-03-16T03:46:02.049Z,54.02
2023-03-16T03:48:32.244Z,53.97
2023-03-16T03:51:00.421Z,54.37
2023-03-16T03:53:45.525Z,54.11
2023-03-16T03:56:13.231Z,54.00
2023-03-16T03:58:40.938Z,54.19
2023-03-16T04:01:08.972Z,54.32
2023-03-16T04:03:37.118Z,54.25
2023-03-16T04:06:09.957Z,54.68
2023-03-16T04:08:38.014Z,54.11
2023-03-16T04:11:09.900Z,54.21
2023-03-16T04:13:37.748Z,54.80
2023-03-16T04:16:06.407Z,54.73
2023-03-16T04:18:42.335Z,54.63
2023-03-16T04:21:16.733Z,54.37
2023-03-16T04:23:50.355Z,54.47
2023-03-16T04:26:18.487Z,54.30
2023-03-16T04:28:48.835Z,53.98
2023-03-16T04:31:19.229Z,53.98
2023-03-16T04:33:49.144Z,54.47
2023-03-16T04:36:17.270Z,53.97
2023-03-16T04:38:45.720Z,54.25
2023-03-16T04:41:14.009Z,54.21
2023-03-16T04:43:50.683Z,54.57
2023-03-16T04:46:21.838Z,54.01
2023-03-16T04:48:50.161Z,54.26
2023-03-16T04:51:18.865Z,54.61
2023-03-16T04:53:58.958Z,53.97
2023-03-16T04:56:34.646Z,54.37
2023-03-16T04:59:06.816Z,54.37
2023-03-16T05:01:44.449Z,54.31
2023-03-16T05:04:19.122Z,54.49
2023-03-16T05:06:48.334Z,54.52
2023-03-16T05:09:17.720Z,54.85
2023-03-16T05:11:45.526Z,54.83
2023-03-16T05:14:13.575Z,55.11
2023-03-16T05:16:55.100Z,54.60
2023-03-16T05:19:23.636Z,54.87
2023-03-16T05:21:51.580Z,54.87
2023-03-16T05:24:19.661Z,54.99
2023-03-16T05:26:47.860Z,55.18
2023-03-16T05:29:17.769Z,54.97
2023-03-16T05:31:47.725Z,54.59
2023-03-16T05:34:18.469Z,54.67
2023-03-16T05:36:46.391Z,54.92
2023-03-16T05:39:18.411Z,55.08
2023-03-16T05:41:49.093Z,55.05
2023-03-16T05:44:26.969Z,54.80
2023-03-16T05:47:22.477Z,54.64
2023-03-16T05:49:55.863Z,54.92
2023-03-16T05:52:32.045Z,54.60
2023-03-16T05:55:05.922Z,54.28
2023-03-16T05:57:35.829Z,54.57
2023-03-16T06:00:14.691Z,54.71
2023-03-16T06:02:51.456Z,54.61
2023-03-16T06:05:25.218Z,54.60
2023-03-16T06:07:55.304Z,54.88
2023-03-16T06:10:26.431Z,54.37
2023-03-16T06:12:58.111Z,54.52
2023-03-16T06:15:30.383Z,54.17
2023-03-16T06:18:00.916Z,54.52
2023-03-16T06:20:29.315Z,54.44
2023-03-16T06:22:58.207Z,54.32
2023-03-16T06:25:25.952Z,54.88
2023-03-16T06:27:54.419Z,54.43
2023-03-16T06:30:26.965Z,54.95
2023-03-16T06:32:56.515Z,54.80
2023-03-16T06:35:27.383Z,55.40
2023-03-16T06:38:09.954Z,55.36
2023-03-16T06:40:55.469Z,54.97
2023-03-16T06:43:24.447Z,55.07
2023-03-16T06:45:53.844Z,55.42
2023-03-16T06:48:22.821Z,55.12
2023-03-16T06:50:50.645Z,55.35
2023-03-16T06:53:25.305Z,54.81
2023-03-16T06:55:54.452Z,54.97
2023-03-16T06:58:22.384Z,55.20
2023-03-16T07:00:50.656Z,55.05
2023-03-16T07:03:21.658Z,54.68
2023-03-16T07:05:55.441Z,55.11
2023-03-16T07:08:26.132Z,55.16
2023-03-16T07:10:58.301Z,55.08
2023-03-16T07:13:26.191Z,54.65
2023-03-16T07:15:54.134Z,54.93
2023-03-16T07:18:26.074Z,55.18
2023-03-16T07:20:54.764Z,55.00
2023-03-16T07:23:25.874Z,55.08
2023-03-16T07:25:58.481Z,55.36
2023-03-16T07:28:28.005Z,54.66
2023-03-16T07:31:03.681Z,55.46
2023-03-16T07:33:42.812Z,54.78
2023-03-16T07:36:14.614Z,55.46
2023-03-16T07:38:48.026Z,54.80
2023-03-16T07:41:15.830Z,54.91
2023-03-16T07:43:46.883Z,54.90
2023-03-16T07:46:16.001Z,54.79
2023-03-16T07:48:46.587Z,55.20
2023-03-16T07:51:17.215Z,54.75
2023-03-16T07:53:48.716Z,55.00
2023-03-16T07:56:23.345Z,54.67
2023-03-16T07:58:56.827Z,55.01
2023-03-16T08:01:24.702Z,54.68
2023-03-16T08:03:53.535Z,54.70
2023-03-16T08:06:21.799Z,54.54
2023-03-16T08:08:49.679Z,54.57
2023-03-16T08:11:24.982Z,54.47
2023-03-16T08:14:03.664Z,54.39
2023-03-16T08:17:09.760Z,54.24
2023-03-16T08:19:38.802Z,54.10
2023-03-16T08:22:09.410Z,53.23
2023-03-16T08:24:42.540Z,53.55
2023-03-16T08:27:13.938Z,53.38
2023-03-16T08:29:46.446Z,53.59
2023-03-16T08:32:18.386Z,53.54
2023-03-16T08:34:47.744Z,53.43
2023-03-16T08:37:18.383Z,52.82
2023-03-16T08:39:47.905Z,53.07
2023-03-16T08:42:19.787Z,53.04
2023-03-16T08:44:57.255Z,52.93
2023-03-16T08:47:26.376Z,52.48
2023-03-16T08:49:55.333Z,52.94
2023-03-16T08:52:23.647Z,52.70
2023-03-16T08:55:03.080Z,52.64
2023-03-16T08:57:35.197Z,52.72
2023-03-16T09:00:12.608Z,52.41
2023-03-16T09:02:43.284Z,52.43
2023-03-16T09:05:14.873Z,52.08
2023-03-16T09:07:44.450Z,51.65
2023-03-16T09:10:16.045Z,51.94
2023-03-16T09:12:45.948Z,51.57
2023-03-16T09:15:14.003Z,51.71
2023-03-16T09:17:44.928Z,51.78
2023-03-16T09:20:26.968Z,51.27
2023-03-16T09:22:59.172Z,51.26
2023-03-16T09:25:27.572Z,51.48
2023-03-16T09:27:55.669Z,51.20
2023-03-16T09:30:29.772Z,51.20
2023-03-16T09:32:59.592Z,51.02
2023-03-16T09:35:27.901Z,51.57
2023-03-16T09:38:06.190Z,51.46
2023-03-16T09:40:37.019Z,51.35
2023-03-16T09:43:43.424Z,50.87
2023-03-16T09:46:29.987Z,50.82
2023-03-16T09:48:59.672Z,50.61
2023-03-16T09:51:52.406Z,50.51
2023-03-16T09:54:54.051Z,50.41
2023-03-16T09:57:36.169Z,50.30
2023-03-16T10:00:30.832Z,50.47
2023-03-16T10:03:23.280Z,49.65
2023-03-16T10:06:04.170Z,49.84
2023-03-16T10:09:04.226Z,49.73
2023-03-16T10:11:53.546Z,49.31
2023-03-16T10:14:49.431Z,49.58
2023-03-16T10:17:37.085Z,48.79
2023-03-16T10:20:14.860Z,48.49
2023-03-16T10:22:48.256Z,48.93
2023-03-16T10:25:23.740Z,48.00
2023-03-16T10:27:53.010Z,48.08
2023-03-16T10:30:36.608Z,48.15
2023-03-16T10:33:31.521Z,48.18
2023-03-16T10:36:25.470Z,48.11
2023-03-16T10:39:05.369Z,48.11
2023-03-16T10:41:43.846Z,48.28
2023-03-16T10:44:16.389Z,47.64
2023-03-16T10:47:00.881Z,47.56
2023-03-16T10:49:36.161Z,47.60
2023-03-16T10:52:20.232Z,47.47
2023-03-16T10:55:01.424Z,47.31
2023-03-16T10:57:35.378Z,47.19
2023-03-16T11:00:12.961Z,46.95
2023-03-16T11:02:40.839Z,46.92
2023-03-16T11:05:33.650Z,46.62
2023-03-16T11:08:21.970Z,46.37
2023-03-16T11:11:02.595Z,46.71
2023-03-16T11:13:37.813Z,46.63
2023-03-16T11:16:27.969Z,46.10
2023-03-16T11:19:04.819Z,46.12
2023-03-16T11:22:15.079Z,45.71
2023-03-16T11:25:09.110Z,46.25
2023-03-16T11:28:04.188Z,45.93
2023-03-16T11:30:46.404Z,45.70
2023-03-16T11:33:15.508Z,46.05
2023-03-16T11:36:04.041Z,45.08
2023-03-16T11:39:00.143Z,45.10
2023-03-16T11:41:57.960Z,45.13
2023-03-16T11:44:57.327Z,44.89
2023-03-16T11:48:16.399Z,44.53
2023-03-16T11:51:06.270Z,44.12
2023-03-16T11:54:00.245Z,43.26
2023-03-16T11:56:42.833Z,43.81
2023-03-16T12:00:04.451Z,43.14
2023-03-16T12:02:56.266Z,43.34
2023-03-16T12:05:57.631Z,43.48
2023-03-16T12:09:04.305Z,42.64
2023-03-16T12:11:56.607Z,42.02
2023-03-16T12:14:36.848Z,42.41
2023-03-16T12:17:14.842Z,42.42
2023-03-16T12:20:13.848Z,42.51
2023-03-16T12:22:54.400Z,42.29
2023-03-16T12:25:47.553Z,41.29
2023-03-16T12:28:27.777Z,41.68
2023-03-16T12:31:33.195Z,41.54
2023-03-16T12:34:26.329Z,40.96
2023-03-16T12:37:33.004Z,41.31
2023-03-16T12:40:31.491Z,41.44
2023-03-16T12:43:31.534Z,41.43
2023-03-16T12:46:20.272Z,41.34
2023-03-16T12:48:53.934Z,41.18
2023-03-16T12:51:38.676Z,40.83
2023-03-16T12:54:18.795Z,41.24
2023-03-16T12:56:51.132Z,40.77
2023-03-16T12:59:30.967Z,40.45
2023-03-16T13:01:59.612Z,40.29
2023-03-16T13:04:43.743Z,39.97
2023-03-16T13:07:29.672Z,40.43
2023-03-16T13:10:10.817Z,40.23
2023-03-16T13:12:41.803Z,40.41
2023-03-16T13:15:20.347Z,39.82
2023-03-16T13:18:07.412Z,39.98
2023-03-16T13:20:48.244Z,39.85
2023-03-16T13:23:22.166Z,39.59
2023-03-16T13:26:47.647Z,39.17
2023-03-16T13:29:26.289Z,39.15
2023-03-16T13:32:02.788Z,39.31
2023-03-16T13:34:38.155Z,39.61
2023-03-16T13:37:16.694Z,38.99
2023-03-16T13:39:54.930Z,38.62
2023-03-16T13:42:25.398Z,39.21
2023-03-16T13:44:58.332Z,39.04
2023-03-16T13:47:27.781Z,39.18
2023-03-16T13:49:58.992Z,39.03
2023-03-16T13:52:34.359Z,38.59
2023-03-16T13:55:18.535Z,38.66
2023-03-16T13:57:49.783Z,38.57
2023-03-16T14:00:18.821Z,38.58
2023-03-16T14:02:52.974Z,38.47
2023-03-16T14:05:30.307Z,38.26
2023-03-16T14:08:02.064Z,38.10
2023-03-16T14:10:35.319Z,37.52
2023-03-16T14:13:29.648Z,37.36
2023-03-16T14:16:11.121Z,37.61
2023-03-16T14:18:46.003Z,37.65
2023-03-16T14:21:22.250Z,37.33
2023-03-16T14:24:02.080Z,37.00
2023-03-16T14:26:47.767Z,36.87
2023-03-16T14:29:25.861Z,37.45
2023-03-16T14:31:56.511Z,36.88
2023-03-16T14:34:41.345Z,36.64
2023-03-16T14:37:20.234Z,36.33
2023-03-16T14:40:02.586Z,36.90
2023-03-16T14:42:31.833Z,36.27
2023-03-16T14:45:06.831Z,36.68
2023-03-16T14:47:42.595Z,36.28
2023-03-16T14:50:25.442Z,36.61
2023-03-16T14:52:55.961Z,36.83
2023-03-16T14:55:24.867Z,36.43
2023-03-16T14:57:53.329Z,36.48
2023-03-16T15:00:22.971Z,36.60
2023-03-16T15:03:15.540Z,36.44
2023-03-16T15:05:48.461Z,36.68
2023-03-16T15:08:32.115Z,36.36
2023-03-16T15:11:06.036Z,36.64
2023-03-16T15:13:39.943Z,36.58
2023-03-16T15:16:11.997Z,36.41
2023-03-16T15:18:40.719Z,36.24
2023-03-16T15:21:18.164Z,36.30
2023-03-16T15:23:46.908Z,36.43
2023-03-16T15:26:25.188Z,36.54
2023-03-16T15:28:57.238Z,36.58
2023-03-16T15:31:28.439Z,36.32
2023-03-16T15:33:57.105Z,36.74
2023-03-16T15:36:24.974Z,36.92
2023-03-16T15:38:55.230Z,36.57
2023-03-16T15:41:26.969Z,36.28
2023-03-16T15:44:00.961Z,36.42
2023-03-16T15:46:28.915Z,36.25
2023-03-16T15:48:59.070Z,36.35
2023-03-16T15:51:30.208Z,36.48
2023-03-16T15:54:02.317Z,35.97
2023-03-16T15:56:41.180Z,35.97
2023-03-16T15:59:36.537Z,35.86
2023-03-16T16:02:33.476Z,35.18
2023-03-16T16:05:02.212Z,35.41
2023-03-16T16:07:31.681Z,35.58
2023-03-16T16:09:59.398Z,35.47
2023-03-16T16:12:30.371Z,35.46
2023-03-16T16:14:58.401Z,35.69
2023-03-16T16:17:43.828Z,35.66
2023-03-16T16:20:28.849Z,35.75
2023-03-16T16:23:03.058Z,36.02
2023-03-16T16:25:41.337Z,35.47
2023-03-16T16:28:20.756Z,35.57
2023-03-16T16:30:49.447Z,36.01
2023-03-16T16:33:35.670Z,35.83
2023-03-16T16:36:14.389Z,35.90
2023-03-16T16:38:42.171Z,36.03
2023-03-16T16:41:35.505Z,36.04
2023-03-16T16:44:08.345Z,36.29
2023-03-16T16:46:41.709Z,36.07
2023-03-16T16:49:24.562Z,36.00
2023-03-16T16:51:53.607Z,36.47
2023-03-16T16:54:24.414Z,36.59
2023-03-16T16:56:57.543Z,36.26
2023-03-16T16:59:32.974Z,36.25
2023-03-16T17:02:21.304Z,36.08
2023-03-16T17:04:50.910Z,36.54
2023-03-16T17:07:20.473Z,36.42
2023-03-16T17:09:49.846Z,36.71
2023-03-16T17:12:22.764Z,36.63
2023-03-16T17:14:51.306Z,36.73
2023-03-16T17:17:19.328Z,36.75
2023-03-16T17:19:48.494Z,36.78
2023-03-16T17:22:24.637Z,36.58
2023-03-16T17:24:54.009Z,36.82
2023-03-16T17:27:31.429Z,36.62
2023-03-16T17:29:59.382Z,36.99
2023-03-16T17:32:27.187Z,37.03
2023-03-16T17:34:55.149Z,37.00
2023-03-16T17:37:25.712Z,37.04
2023-03-16T17:39:56.222Z,36.94
2023-03-16T17:42:26.438Z,37.18
2023-03-16T17:44:54.550Z,37.31
2023-03-16T17:47:29.076Z,37.13
2023-03-16T17:49:57.171Z,37.34
2023-03-16T17:52:29.193Z,37.46
2023-03-16T17:54:57.244Z,37.51
2023-03-16T17:57:33.798Z,37.32
2023-03-16T18:00:08.868Z,37.44
2023-03-16T18:02:50.599Z,37.44
2023-03-16T18:05:34.393Z,37.61
2023-03-16T18:08:27.572Z,37.67
2023-03-16T18:11:02.965Z,37.62
2023-03-16T18:13:38.121Z,37.82
2023-03-16T18:16:07.577Z,37.92
2023-03-16T18:18:41.573Z,38.00
2023-03-16T18:21:23.155Z,37.90
2023-03-16T18:23:53.722Z,37.92
2023-03-16T18:26:23.691Z,38.08
2023-03-16T18:28:53.532Z,38.15
2023-03-16T18:31:25.772Z,38.05
2023-03-16T18:34:03.456Z,37.89
2023-03-16T18:36:36.736Z,37.96
2023-03-16T18:39:07.042Z,37.98
2023-03-16T18:41:36.048Z,38.10
2023-03-16T18:44:16.827Z,37.77
2023-03-16T18:46:46.482Z,38.18
2023-03-16T18:49:33.161Z,38.12
2023-03-16T18:52:01.302Z,38.29
2023-03-16T18:54:35.110Z,38.26
2023-03-16T18:57:05.784Z,38.28
2023-03-16T18:59:34.660Z,38.32
2023-03-16T19:02:03.009Z,38.33
2023-03-16T19:04:32.772Z,38.36
2023-03-16T19:07:00.759Z,38.38
2023-03-16T19:09:31.883Z,38.23
2023-03-16T19:11:59.858Z,38.39
2023-03-16T19:14:34.082Z,38.36
2023-03-16T19:17:01.906Z,38.51
2023-03-16T19:19:29.618Z,38.51
2023-03-16T19:22:16.020Z,38.38
2023-03-16T19:24:46.556Z,38.57
2023-03-16T19:27:36.903Z,38.62
2023-03-16T19:30:15.359Z,38.66
2023-03-16T19:32:43.471Z,38.63
2023-03-16T19:35:17.277Z,38.51
2023-03-16T19:37:46.496Z,38.55
2023-03-16T19:40:18.936Z,38.49
2023-03-16T19:42:47.735Z,38.50
2023-03-16T19:45:18.915Z,38.45
2023-03-16T19:47:46.860Z,38.54
2023-03-16T19:50:19.284Z,38.47
2023-03-16T19:52:48.235Z,38.62
2023-03-16T19:55:28.137Z,38.56
2023-03-16T19:58:07.503Z,38.64
2023-03-16T20:00:36.031Z,38.83
2023-03-16T20:03:04.050Z,38.68
2023-03-16T20:05:33.639Z,38.63
2023-03-16T20:08:02.595Z,38.69
2023-03-16T20:10:32.549Z,38.49
2023-03-16T20:13:02.454Z,38.59
2023-03-16T20:15:33.414Z,38.52
2023-03-16T20:18:01.906Z,38.82
2023-03-16T20:20:35.849Z,38.74
2023-03-16T20:23:18.955Z,38.81
2023-03-16T20:25:47.650Z,38.92
2023-03-16T20:28:24.761Z,38.85
2023-03-16T20:30:53.729Z,38.88
2023-03-16T20:33:24.636Z,38.88
2023-03-16T20:35:59.360Z,38.82
2023-03-16T20:38:28.640Z,39.06
2023-03-16T20:40:56.603Z,38.97
2023-03-16T20:43:32.078Z,38.95
2023-03-16T20:46:03.708Z,39.03
2023-03-16T20:48:32.163Z,39.09
2023-03-16T20:51:01.498Z,39.15
2023-03-16T20:53:29.441Z,39.19
2023-03-16T20:55:57.288Z,39.14
2023-03-16T20:58:28.116Z,38.89
2023-03-16T21:01:00.984Z,39.34
2023-03-16T21:03:30.928Z,39.47
2023-03-16T21:06:00.226Z,39.46
2023-03-16T21:08:29.134Z,39.52
2023-03-16T21:10:59.724Z,39.49
2023-03-16T21:13:33.363Z,39.30
2023-03-16T21:16:03.845Z,39.45
2023-03-16T21:18:32.951Z,39.62
2023-03-16T21:21:00.966Z,39.56
2023-03-16T21:23:28.801Z,39.54
2023-03-16T21:26:02.886Z,39.52
2023-03-16T21:28:34.500Z,39.60
2023-03-16T21:31:03.414Z,39.86
2023-03-16T21:33:34.931Z,39.95
2023-03-16T21:36:07.159Z,39.77
2023-03-16T21:38:35.352Z,39.91
2023-03-16T21:41:03.121Z,39.91
2023-03-16T21:43:31.706Z,39.80
2023-03-16T21:46:00.128Z,39.80
2023-03-16T21:48:39.428Z,39.71
2023-03-16T21:51:19.870Z,39.84
2023-03-16T21:53:49.703Z,39.98
2023-03-16T21:56:24.682Z,39.97
2023-03-16T21:58:54.307Z,39.95
2023-03-16T22:01:32.262Z,39.97
2023-03-16T22:04:14.969Z,39.97
2023-03-16T22:06:45.399Z,39.93
2023-03-16T22:09:20.192Z,39.92
2023-03-16T22:11:48.327Z,40.04
2023-03-16T22:14:16.102Z,40.05
2023-03-16T22:16:44.066Z,40.04
2023-03-16T22:19:15.843Z,39.92
2023-03-16T22:21:45.071Z,40.15
2023-03-16T22:24:30.025Z,40.09
2023-03-16T22:26:57.968Z,40.03
2023-03-16T22:29:31.214Z,39.93
2023-03-16T22:32:07.286Z,40.11
2023-03-16T22:35:02.976Z,39.98
2023-03-16T22:37:31.107Z,40.23
2023-03-16T22:40:01.585Z,40.12
2023-03-16T22:42:37.187Z,40.11
2023-03-16T22:45:23.079Z,40.08
2023-03-16T22:47:51.841Z,40.17
2023-03-16T22:50:21.882Z,40.12
2023-03-16T22:52:53.910Z,40.20
2023-03-16T22:55:31.619Z,39.92
2023-03-16T22:58:12.051Z,40.30
2023-03-16T23:00:40.050Z,40.23
2023-03-16T23:03:18.614Z,40.10
2023-03-16T23:05:47.000Z,40.23
2023-03-16T23:08:19.827Z,40.15
2023-03-16T23:10:48.277Z,40.25
2023-03-16T23:13:24.366Z,40.31
2023-03-16T23:15:53.663Z,40.38
2023-03-16T23:18:26.776Z,40.27
2023-03-16T23:20:54.533Z,40.18
2023-03-16T23:23:22.471Z,40.44
2023-03-16T23:25:51.658Z,40.28
2023-03-16T23:28:24.352Z,40.17
2023-03-16T23:30:52.539Z,40.47
2023-03-16T23:33:20.311Z,40.41
2023-03-16T23:35:47.990Z,40.49
2023-03-16T23:38:16.080Z,40.59
2023-03-16T23:40:44.012Z,40.26
2023-03-16T23:43:11.951Z,40.64
2023-03-16T23:45:45.725Z,40.66
2023-03-16T23:48:18.881Z,40.43
2023-03-16T23:50:52.022Z,40.56
2023-03-16T23:53:20.619Z,40.64
2023-03-16T23:55:48.958Z,40.67
2023-03-16T23:58:17.254Z,40.73
